DAL2345 KFLL-KATL
Flight info
| Callsign | DAL2345 |
|---|---|
| Flight time | 1h 23m |
| Altitude | 34000 |
| Route | FRSBE2 STYMY Q77 MJAMS/N0432F330 Q77 SHRKS/N0434F340 LAIRI LARZZ JJEDI4 |
| Aircraft | B739/M-SDE2E3FGHIRWXY/LB1 |
Departure
| Time | 2026-05-04 00:42 |
|---|---|
| Airport | Fort Lauderdale Hollywood International Airport (KFLL) |
Arrival
| Time | 2026-05-04 02:06 |
|---|---|
| Airport | Hartsfield Jackson Atlanta International Airport (KATL) |
| Time | Latitude | Longitude | Altitude | Speed | Heading |
|---|---|---|---|---|---|
| 2026-05-03 23:32 | 26.07381 | -80.14426 | 15 ft | 0 kts | 139° |
| 2026-05-03 23:44 | 26.07383 | -80.14428 | 15 ft | 3 kts | 140° |
| 2026-05-03 23:44 | 26.07399 | -80.14442 | 15 ft | 3 kts | 147° |
| 2026-05-03 23:45 | 26.07417 | -80.14453 | 15 ft | 3 kts | 156° |
| 2026-05-03 23:45 | 26.07436 | -80.14461 | 15 ft | 3 kts | 168° |
| 2026-05-03 23:45 | 26.07455 | -80.14464 | 15 ft | 3 kts | 184° |
| 2026-05-03 23:45 | 26.07474 | -80.14460 | 15 ft | 3 kts | 212° |
| 2026-05-03 23:46 | 26.07486 | -80.14447 | 15 ft | 3 kts | 261° |
| 2026-05-03 23:46 | 26.07487 | -80.14443 | 15 ft | 0 kts | 270° |
| 2026-05-03 23:49 | 26.07487 | -80.14444 | 15 ft | 1 kts | 270° |
| 2026-05-03 23:49 | 26.07487 | -80.14455 | 15 ft | 2 kts | 270° |
| 2026-05-03 23:49 | 26.07487 | -80.14480 | 15 ft | 4 kts | 270° |
| 2026-05-03 23:50 | 26.07487 | -80.14506 | 15 ft | 2 kts | 270° |
| 2026-05-03 23:50 | 26.07488 | -80.14510 | 15 ft | 0 kts | 270° |
| 2026-05-03 23:50 | 26.07488 | -80.14512 | 15 ft | 1 kts | 270° |
| 2026-05-03 23:50 | 26.07488 | -80.14517 | 15 ft | 0 kts | 270° |
| 2026-05-03 23:51 | 26.07488 | -80.14522 | 15 ft | 1 kts | 270° |
| 2026-05-03 23:51 | 26.07488 | -80.14525 | 15 ft | 0 kts | 270° |
| 2026-05-03 23:52 | 26.07488 | -80.14539 | 15 ft | 5 kts | 270° |
| 2026-05-03 23:52 | 26.07488 | -80.14588 | 15 ft | 7 kts | 270° |
| 2026-05-03 23:52 | 26.07488 | -80.14638 | 15 ft | 7 kts | 270° |
| 2026-05-03 23:53 | 26.07489 | -80.14688 | 15 ft | 6 kts | 270° |
| 2026-05-03 23:53 | 26.07488 | -80.14737 | 15 ft | 6 kts | 268° |
| 2026-05-03 23:53 | 26.07488 | -80.14785 | 15 ft | 6 kts | 270° |
| 2026-05-03 23:53 | 26.07488 | -80.14835 | 15 ft | 7 kts | 270° |
| 2026-05-03 23:54 | 26.07488 | -80.14899 | 15 ft | 9 kts | 270° |
| 2026-05-03 23:54 | 26.07488 | -80.14978 | 15 ft | 11 kts | 270° |
| 2026-05-03 23:54 | 26.07489 | -80.15072 | 15 ft | 13 kts | 270° |
| 2026-05-03 23:54 | 26.07489 | -80.15169 | 15 ft | 13 kts | 270° |
| 2026-05-03 23:55 | 26.07490 | -80.15266 | 15 ft | 10 kts | 270° |
| 2026-05-03 23:55 | 26.07490 | -80.15342 | 15 ft | 7 kts | 270° |
| 2026-05-03 23:55 | 26.07491 | -80.15367 | 15 ft | 3 kts | 270° |
| 2026-05-03 23:55 | 26.07491 | -80.15371 | 15 ft | 0 kts | 270° |
| 2026-05-03 23:58 | 26.07491 | -80.15376 | 15 ft | 2 kts | 270° |
| 2026-05-03 23:58 | 26.07491 | -80.15408 | 15 ft | 6 kts | 270° |
| 2026-05-03 23:58 | 26.07491 | -80.15446 | 15 ft | 3 kts | 268° |
| 2026-05-03 23:58 | 26.07491 | -80.15460 | 15 ft | 0 kts | 269° |
| 2026-05-04 00:03 | 26.07491 | -80.15465 | 15 ft | 1 kts | 269° |
| 2026-05-04 00:04 | 26.07491 | -80.15490 | 15 ft | 5 kts | 270° |
| 2026-05-04 00:04 | 26.07491 | -80.15529 | 15 ft | 5 kts | 270° |
| 2026-05-04 00:04 | 26.07492 | -80.15568 | 15 ft | 5 kts | 270° |
| 2026-05-04 00:04 | 26.07492 | -80.15594 | 15 ft | 1 kts | 270° |
| 2026-05-04 00:05 | 26.07492 | -80.15599 | 15 ft | 1 kts | 270° |
| 2026-05-04 00:05 | 26.07492 | -80.15604 | 15 ft | 1 kts | 270° |
| 2026-05-04 00:05 | 26.07492 | -80.15607 | 15 ft | 0 kts | 270° |
| 2026-05-04 00:07 | 26.07492 | -80.15608 | 15 ft | 1 kts | 271° |
| 2026-05-04 00:07 | 26.07492 | -80.15630 | 15 ft | 4 kts | 271° |
| 2026-05-04 00:07 | 26.07492 | -80.15655 | 15 ft | 0 kts | 270° |
| 2026-05-04 00:09 | 26.07492 | -80.15660 | 15 ft | 1 kts | 270° |
| 2026-05-04 00:09 | 26.07492 | -80.15672 | 15 ft | 2 kts | 270° |
| 2026-05-04 00:09 | 26.07492 | -80.15685 | 15 ft | 3 kts | 270° |
| 2026-05-04 00:09 | 26.07492 | -80.15716 | 15 ft | 6 kts | 270° |
| 2026-05-04 00:10 | 26.07493 | -80.15761 | 15 ft | 6 kts | 270° |
| 2026-05-04 00:10 | 26.07493 | -80.15802 | 15 ft | 5 kts | 270° |
| 2026-05-04 00:10 | 26.07493 | -80.15834 | 15 ft | 1 kts | 271° |
| 2026-05-04 00:10 | 26.07493 | -80.15838 | 15 ft | 0 kts | 271° |
| 2026-05-04 00:13 | 26.07493 | -80.15839 | 15 ft | 1 kts | 271° |
| 2026-05-04 00:14 | 26.07493 | -80.15855 | 15 ft | 4 kts | 270° |
| 2026-05-04 00:14 | 26.07493 | -80.15870 | 15 ft | 0 kts | 271° |
| 2026-05-04 00:14 | 26.07493 | -80.15871 | 15 ft | 0 kts | 271° |
| 2026-05-04 00:15 | 26.07493 | -80.15880 | 15 ft | 2 kts | 270° |
| 2026-05-04 00:16 | 26.07493 | -80.15904 | 15 ft | 3 kts | 270° |
| 2026-05-04 00:16 | 26.07494 | -80.15930 | 15 ft | 3 kts | 270° |
| 2026-05-04 00:16 | 26.07494 | -80.15948 | 15 ft | 0 kts | 270° |
| 2026-05-04 00:18 | 26.07494 | -80.15949 | 15 ft | 1 kts | 270° |
| 2026-05-04 00:18 | 26.07494 | -80.15957 | 15 ft | 1 kts | 271° |
| 2026-05-04 00:19 | 26.07494 | -80.15965 | 15 ft | 1 kts | 271° |
| 2026-05-04 00:21 | 26.07494 | -80.15966 | 15 ft | 1 kts | 271° |
| 2026-05-04 00:21 | 26.07494 | -80.15983 | 15 ft | 4 kts | 270° |
| 2026-05-04 00:21 | 26.07494 | -80.16014 | 15 ft | 3 kts | 270° |
| 2026-05-04 00:22 | 26.07494 | -80.16015 | 15 ft | 0 kts | 270° |
| 2026-05-04 00:22 | 26.07494 | -80.16016 | 15 ft | 1 kts | 270° |
| 2026-05-04 00:23 | 26.07494 | -80.16031 | 15 ft | 3 kts | 269° |
| 2026-05-04 00:23 | 26.07494 | -80.16055 | 15 ft | 3 kts | 270° |
| 2026-05-04 00:23 | 26.07494 | -80.16069 | 15 ft | 0 kts | 270° |
| 2026-05-04 00:24 | 26.07494 | -80.16070 | 15 ft | 1 kts | 270° |
| 2026-05-04 00:24 | 26.07494 | -80.16087 | 15 ft | 3 kts | 271° |
| 2026-05-04 00:24 | 26.07494 | -80.16099 | 15 ft | 0 kts | 271° |
| 2026-05-04 00:25 | 26.07494 | -80.16104 | 15 ft | 2 kts | 270° |
| 2026-05-04 00:25 | 26.07494 | -80.16126 | 15 ft | 3 kts | 270° |
| 2026-05-04 00:25 | 26.07495 | -80.16152 | 15 ft | 3 kts | 270° |
| 2026-05-04 00:25 | 26.07495 | -80.16155 | 15 ft | 0 kts | 270° |
| 2026-05-04 00:26 | 26.07494 | -80.16164 | 15 ft | 3 kts | 270° |
| 2026-05-04 00:26 | 26.07495 | -80.16199 | 15 ft | 6 kts | 270° |
| 2026-05-04 00:26 | 26.07495 | -80.16244 | 15 ft | 5 kts | 270° |
| 2026-05-04 00:27 | 26.07495 | -80.16258 | 15 ft | 0 kts | 270° |
| 2026-05-04 00:27 | 26.07495 | -80.16262 | 15 ft | 0 kts | 270° |
| 2026-05-04 00:27 | 26.07495 | -80.16265 | 15 ft | 0 kts | 270° |
| 2026-05-04 00:28 | 26.07495 | -80.16266 | 15 ft | 1 kts | 270° |
| 2026-05-04 00:28 | 26.07496 | -80.16291 | 15 ft | 4 kts | 271° |
| 2026-05-04 00:29 | 26.07496 | -80.16328 | 15 ft | 5 kts | 270° |
| 2026-05-04 00:29 | 26.07496 | -80.16364 | 15 ft | 5 kts | 271° |
| 2026-05-04 00:29 | 26.07496 | -80.16391 | 15 ft | 0 kts | 270° |
| 2026-05-04 00:30 | 26.07496 | -80.16399 | 15 ft | 2 kts | 270° |
| 2026-05-04 00:31 | 26.07497 | -80.16419 | 15 ft | 3 kts | 270° |
| 2026-05-04 00:31 | 26.07497 | -80.16425 | 15 ft | 0 kts | 270° |
| 2026-05-04 00:32 | 26.07497 | -80.16433 | 15 ft | 3 kts | 270° |
| 2026-05-04 00:32 | 26.07497 | -80.16461 | 15 ft | 3 kts | 270° |
| 2026-05-04 00:32 | 26.07497 | -80.16476 | 15 ft | 0 kts | 270° |
| 2026-05-04 00:33 | 26.07497 | -80.16502 | 15 ft | 4 kts | 270° |
| 2026-05-04 00:33 | 26.07497 | -80.16529 | 15 ft | 1 kts | 270° |
| 2026-05-04 00:34 | 26.07497 | -80.16541 | 15 ft | 4 kts | 270° |
| 2026-05-04 00:34 | 26.07497 | -80.16573 | 15 ft | 4 kts | 270° |
| 2026-05-04 00:35 | 26.07499 | -80.16604 | 15 ft | 4 kts | 279° |
| 2026-05-04 00:35 | 26.07504 | -80.16617 | 15 ft | 2 kts | 294° |
| 2026-05-04 00:35 | 26.07505 | -80.16620 | 15 ft | 0 kts | 298° |
| 2026-05-04 00:37 | 26.07512 | -80.16629 | 15 ft | 2 kts | 315° |
| 2026-05-04 00:37 | 26.07523 | -80.16636 | 15 ft | 1 kts | 333° |
| 2026-05-04 00:37 | 26.07527 | -80.16638 | 15 ft | 0 kts | 339° |
| 2026-05-04 00:38 | 26.07535 | -80.16640 | 15 ft | 3 kts | 347° |
| 2026-05-04 00:38 | 26.07558 | -80.16642 | 15 ft | 3 kts | 358° |
| 2026-05-04 00:38 | 26.07577 | -80.16643 | 16 ft | 2 kts | 359° |
| 2026-05-04 00:39 | 26.07589 | -80.16643 | 15 ft | 1 kts | 359° |
| 2026-05-04 00:40 | 26.07591 | -80.16643 | 15 ft | 2 kts | 359° |
| 2026-05-04 00:40 | 26.07632 | -80.16644 | 16 ft | 7 kts | 0° |
| 2026-05-04 00:41 | 26.07675 | -80.16630 | 18 ft | 6 kts | 36° |
| 2026-05-04 00:41 | 26.07694 | -80.16589 | 17 ft | 6 kts | 82° |
| 2026-05-04 00:41 | 26.07695 | -80.16573 | 17 ft | 0 kts | 90° |
| 2026-05-04 00:41 | 26.07695 | -80.16569 | 17 ft | 1 kts | 90° |
| 2026-05-04 00:42 | 26.07693 | -80.16326 | 20 ft | 68 kts | 90° |
| 2026-05-04 00:42 | 26.07688 | -80.15529 | 14 ft | 135 kts | 90° |
| 2026-05-04 00:42 | 26.07684 | -80.14285 | 46 ft | 184 kts | 90° |
| 2026-05-04 00:42 | 26.07686 | -80.12839 | 780 ft | 179 kts | 87° |
| 2026-05-04 00:43 | 26.07731 | -80.11466 | 1637 ft | 181 kts | 88° |
| 2026-05-04 00:43 | 26.07792 | -80.10013 | 2084 ft | 202 kts | 81° |
| 2026-05-04 00:43 | 26.08436 | -80.08541 | 2317 ft | 226 kts | 48° |
| 2026-05-04 00:43 | 26.09571 | -80.07223 | 2673 ft | 245 kts | 47° |
| 2026-05-04 00:44 | 26.10956 | -80.06003 | 2986 ft | 264 kts | 20° |
| 2026-05-04 00:44 | 26.12741 | -80.05418 | 3773 ft | 269 kts | 16° |
| 2026-05-04 00:44 | 26.14548 | -80.04826 | 4618 ft | 272 kts | 10° |
| 2026-05-04 00:44 | 26.16411 | -80.04910 | 5432 ft | 274 kts | 343° |
| 2026-05-04 00:45 | 26.18222 | -80.05584 | 6292 ft | 276 kts | 339° |
| 2026-05-04 00:45 | 26.20043 | -80.06313 | 7111 ft | 280 kts | 338° |
| 2026-05-04 00:45 | 26.21795 | -80.07252 | 7852 ft | 282 kts | 318° |
| 2026-05-04 00:45 | 26.23010 | -80.08935 | 8632 ft | 280 kts | 295° |
| 2026-05-04 00:46 | 26.23763 | -80.10935 | 9411 ft | 281 kts | 289° |
| 2026-05-04 00:46 | 26.24463 | -80.12980 | 10185 ft | 283 kts | 289° |
| 2026-05-04 00:46 | 26.25189 | -80.15082 | 10582 ft | 302 kts | 289° |
| 2026-05-04 00:46 | 26.26100 | -80.17295 | 10773 ft | 325 kts | 297° |
| 2026-05-04 00:47 | 26.27310 | -80.19491 | 11239 ft | 337 kts | 300° |
| 2026-05-04 00:47 | 26.28601 | -80.21681 | 11937 ft | 339 kts | 300° |
| 2026-05-04 00:47 | 26.29903 | -80.23874 | 12697 ft | 340 kts | 300° |
| 2026-05-04 00:47 | 26.31188 | -80.26064 | 13377 ft | 343 kts | 300° |
| 2026-05-04 00:48 | 26.32488 | -80.28306 | 14041 ft | 345 kts | 299° |
| 2026-05-04 00:48 | 26.33786 | -80.30569 | 14702 ft | 348 kts | 299° |
| 2026-05-04 00:48 | 26.35088 | -80.32852 | 15364 ft | 350 kts | 298° |
| 2026-05-04 00:48 | 26.36391 | -80.35147 | 16010 ft | 352 kts | 298° |
| 2026-05-04 00:49 | 26.37711 | -80.37474 | 16622 ft | 355 kts | 298° |
| 2026-05-04 00:49 | 26.39034 | -80.39813 | 17207 ft | 357 kts | 298° |
| 2026-05-04 00:49 | 26.40365 | -80.42164 | 17779 ft | 360 kts | 297° |
| 2026-05-04 00:49 | 26.41704 | -80.44533 | 18355 ft | 362 kts | 297° |
| 2026-05-04 00:50 | 26.43054 | -80.46922 | 18913 ft | 365 kts | 297° |
| 2026-05-04 00:50 | 26.44395 | -80.49294 | 19419 ft | 367 kts | 297° |
| 2026-05-04 00:50 | 26.45761 | -80.51717 | 19931 ft | 370 kts | 297° |
| 2026-05-04 00:50 | 26.47161 | -80.54143 | 20417 ft | 375 kts | 302° |
| 2026-05-04 00:51 | 26.49079 | -80.56183 | 20882 ft | 390 kts | 320° |
| 2026-05-04 00:51 | 26.51542 | -80.57563 | 21350 ft | 405 kts | 335° |
| 2026-05-04 00:51 | 26.54258 | -80.58476 | 21801 ft | 410 kts | 338° |
| 2026-05-04 00:51 | 26.57032 | -80.59323 | 22211 ft | 414 kts | 338° |
| 2026-05-04 00:52 | 26.59834 | -80.60162 | 22614 ft | 417 kts | 338° |
| 2026-05-04 00:52 | 26.62619 | -80.61006 | 23026 ft | 420 kts | 338° |
| 2026-05-04 00:52 | 26.65476 | -80.61888 | 23450 ft | 422 kts | 338° |
| 2026-05-04 00:52 | 26.68276 | -80.62766 | 23839 ft | 424 kts | 337° |
| 2026-05-04 00:53 | 26.71133 | -80.63671 | 24212 ft | 427 kts | 337° |
| 2026-05-04 00:53 | 26.73998 | -80.64583 | 24585 ft | 429 kts | 337° |
| 2026-05-04 00:53 | 26.76881 | -80.65502 | 24952 ft | 432 kts | 336° |
| 2026-05-04 00:53 | 26.79784 | -80.66428 | 25296 ft | 435 kts | 336° |
| 2026-05-04 00:54 | 26.82711 | -80.67363 | 25668 ft | 437 kts | 336° |
| 2026-05-04 00:54 | 26.85613 | -80.68288 | 26033 ft | 439 kts | 336° |
| 2026-05-04 00:54 | 26.88558 | -80.69227 | 26387 ft | 442 kts | 336° |
| 2026-05-04 00:54 | 26.91530 | -80.70177 | 26703 ft | 445 kts | 336° |
| 2026-05-04 00:55 | 26.94485 | -80.71206 | 27038 ft | 444 kts | 334° |
| 2026-05-04 00:55 | 26.97422 | -80.72320 | 27346 ft | 446 kts | 333° |
| 2026-05-04 00:55 | 27.00364 | -80.73467 | 27667 ft | 448 kts | 333° |
| 2026-05-04 00:55 | 27.03326 | -80.74622 | 27995 ft | 450 kts | 333° |
| 2026-05-04 00:56 | 27.06298 | -80.75769 | 28294 ft | 453 kts | 333° |
| 2026-05-04 00:56 | 27.09295 | -80.76916 | 28590 ft | 456 kts | 333° |
| 2026-05-04 00:56 | 27.12307 | -80.78062 | 28907 ft | 458 kts | 333° |
| 2026-05-04 00:56 | 27.15332 | -80.79208 | 29238 ft | 460 kts | 333° |
| 2026-05-04 00:57 | 27.18361 | -80.80355 | 29654 ft | 459 kts | 333° |
| 2026-05-04 00:57 | 27.21380 | -80.81497 | 30086 ft | 457 kts | 333° |
| 2026-05-04 00:57 | 27.24357 | -80.82626 | 30484 ft | 457 kts | 333° |
| 2026-05-04 00:57 | 27.27368 | -80.83772 | 30867 ft | 457 kts | 332° |
| 2026-05-04 00:58 | 27.30376 | -80.84914 | 31348 ft | 454 kts | 332° |
| 2026-05-04 00:58 | 27.33364 | -80.86057 | 31784 ft | 452 kts | 330° |
| 2026-05-04 00:58 | 27.36324 | -80.87245 | 32151 ft | 450 kts | 330° |
| 2026-05-04 00:58 | 27.39262 | -80.88458 | 32558 ft | 448 kts | 329° |
| 2026-05-04 00:59 | 27.42185 | -80.89677 | 32922 ft | 447 kts | 329° |
| 2026-05-04 00:59 | 27.45072 | -80.90882 | 33236 ft | 447 kts | 328° |
| 2026-05-04 00:59 | 27.47983 | -80.92092 | 33623 ft | 445 kts | 328° |
| 2026-05-04 00:59 | 27.50882 | -80.93291 | 34011 ft | 443 kts | 328° |
| 2026-05-04 01:00 | 27.53791 | -80.94498 | 34032 ft | 447 kts | 327° |
| 2026-05-04 01:00 | 27.59645 | -80.96922 | 34065 ft | 451 kts | 328° |
| 2026-05-04 01:01 | 27.65583 | -80.99385 | 34072 ft | 459 kts | 328° |
| 2026-05-04 01:01 | 27.71628 | -81.01888 | 34071 ft | 467 kts | 328° |
| 2026-05-04 01:02 | 27.77774 | -81.04431 | 34072 ft | 473 kts | 328° |
| 2026-05-04 01:02 | 27.83949 | -81.06987 | 34068 ft | 477 kts | 328° |
| 2026-05-04 01:03 | 27.90207 | -81.09585 | 34066 ft | 479 kts | 328° |
| 2026-05-04 01:03 | 27.96483 | -81.12194 | 34063 ft | 480 kts | 328° |
| 2026-05-04 01:04 | 28.02764 | -81.14807 | 34068 ft | 480 kts | 328° |
| 2026-05-04 01:04 | 28.08866 | -81.17690 | 34079 ft | 471 kts | 323° |
| 2026-05-04 01:05 | 28.14787 | -81.20834 | 34075 ft | 470 kts | 322° |
| 2026-05-04 01:05 | 28.20720 | -81.23948 | 34083 ft | 470 kts | 323° |
| 2026-05-04 01:06 | 28.26631 | -81.26996 | 34091 ft | 470 kts | 323° |
| 2026-05-04 01:06 | 28.32583 | -81.30061 | 34087 ft | 469 kts | 323° |
| 2026-05-04 01:07 | 28.38534 | -81.33120 | 34085 ft | 470 kts | 323° |
| 2026-05-04 01:07 | 28.44502 | -81.36160 | 34079 ft | 470 kts | 323° |
| 2026-05-04 01:08 | 28.50465 | -81.39200 | 34096 ft | 469 kts | 323° |
| 2026-05-04 01:08 | 28.56429 | -81.42251 | 34103 ft | 469 kts | 323° |
| 2026-05-04 01:09 | 28.62383 | -81.45303 | 34104 ft | 469 kts | 323° |
| 2026-05-04 01:09 | 28.68297 | -81.48338 | 34100 ft | 469 kts | 323° |
| 2026-05-04 01:10 | 28.74243 | -81.51392 | 34106 ft | 469 kts | 323° |
| 2026-05-04 01:10 | 28.80191 | -81.54450 | 34114 ft | 469 kts | 323° |
| 2026-05-04 01:11 | 28.86135 | -81.57513 | 34111 ft | 468 kts | 323° |
| 2026-05-04 01:11 | 28.92185 | -81.60421 | 34103 ft | 480 kts | 332° |
| 2026-05-04 01:11 | 28.95485 | -81.61296 | 34112 ft | 496 kts | 341° |
| 2026-05-04 01:12 | 28.97776 | -81.61574 | 34120 ft | 501 kts | 344° |
| 2026-05-04 01:12 | 29.05894 | -81.62217 | 34110 ft | 504 kts | 345° |
| 2026-05-04 01:13 | 29.12873 | -81.62760 | 34108 ft | 501 kts | 345° |
| 2026-05-04 01:13 | 29.18692 | -81.63272 | 34111 ft | 500 kts | 344° |
| 2026-05-04 01:14 | 29.25577 | -81.63910 | 34121 ft | 499 kts | 344° |
| 2026-05-04 01:14 | 29.32502 | -81.64555 | 34120 ft | 499 kts | 345° |
| 2026-05-04 01:15 | 29.39423 | -81.65195 | 34116 ft | 498 kts | 344° |
| 2026-05-04 01:15 | 29.46300 | -81.65833 | 34109 ft | 498 kts | 345° |
| 2026-05-04 01:16 | 29.53203 | -81.66469 | 34111 ft | 497 kts | 345° |
| 2026-05-04 01:16 | 29.60095 | -81.67106 | 34114 ft | 496 kts | 345° |
| 2026-05-04 01:17 | 29.66969 | -81.67745 | 34110 ft | 495 kts | 345° |
| 2026-05-04 01:17 | 29.73833 | -81.68381 | 34107 ft | 493 kts | 345° |
| 2026-05-04 01:18 | 29.80635 | -81.69006 | 34113 ft | 493 kts | 345° |
| 2026-05-04 01:18 | 29.87484 | -81.69637 | 34108 ft | 493 kts | 345° |
| 2026-05-04 01:19 | 29.94322 | -81.70270 | 34114 ft | 493 kts | 345° |
| 2026-05-04 01:19 | 30.01158 | -81.70902 | 34119 ft | 493 kts | 345° |
| 2026-05-04 01:20 | 30.07998 | -81.71537 | 34124 ft | 493 kts | 345° |
| 2026-05-04 01:20 | 30.14796 | -81.72168 | 34125 ft | 493 kts | 345° |
| 2026-05-04 01:21 | 30.21641 | -81.72804 | 34131 ft | 493 kts | 345° |
| 2026-05-04 01:21 | 30.28488 | -81.73439 | 34131 ft | 493 kts | 345° |
| 2026-05-04 01:22 | 30.35329 | -81.74077 | 34140 ft | 493 kts | 345° |
| 2026-05-04 01:22 | 30.42167 | -81.74719 | 34136 ft | 493 kts | 345° |
| 2026-05-04 01:23 | 30.49010 | -81.75357 | 34124 ft | 494 kts | 345° |
| 2026-05-04 01:23 | 30.55824 | -81.75993 | 34120 ft | 494 kts | 345° |
| 2026-05-04 01:24 | 30.62552 | -81.77112 | 34119 ft | 477 kts | 333° |
| 2026-05-04 01:24 | 30.65643 | -81.78380 | 34113 ft | 463 kts | 323° |
| 2026-05-04 01:24 | 30.68515 | -81.80036 | 34131 ft | 460 kts | 322° |
| 2026-05-04 01:25 | 30.74208 | -81.83416 | 34122 ft | 460 kts | 322° |
| 2026-05-04 01:25 | 30.79925 | -81.86783 | 34122 ft | 461 kts | 322° |
| 2026-05-04 01:26 | 30.85633 | -81.90108 | 34126 ft | 461 kts | 323° |
| 2026-05-04 01:26 | 30.91369 | -81.93438 | 34129 ft | 461 kts | 322° |
| 2026-05-04 01:27 | 30.97113 | -81.96775 | 34131 ft | 461 kts | 323° |
| 2026-05-04 01:27 | 31.02847 | -82.00114 | 34126 ft | 461 kts | 323° |
| 2026-05-04 01:28 | 31.08585 | -82.03461 | 34133 ft | 461 kts | 323° |
| 2026-05-04 01:28 | 31.14334 | -82.06820 | 34142 ft | 462 kts | 323° |
| 2026-05-04 01:29 | 31.20049 | -82.10162 | 34140 ft | 462 kts | 323° |
| 2026-05-04 01:29 | 31.25804 | -82.13532 | 34148 ft | 462 kts | 323° |
| 2026-05-04 01:30 | 31.31554 | -82.16905 | 34143 ft | 462 kts | 323° |
| 2026-05-04 01:30 | 31.37315 | -82.20287 | 34137 ft | 463 kts | 323° |
| 2026-05-04 01:31 | 31.43070 | -82.23672 | 34139 ft | 463 kts | 323° |
| 2026-05-04 01:31 | 31.48787 | -82.27037 | 34137 ft | 463 kts | 323° |
| 2026-05-04 01:32 | 31.54547 | -82.30435 | 34133 ft | 463 kts | 323° |
| 2026-05-04 01:32 | 31.60317 | -82.33842 | 34129 ft | 464 kts | 323° |
| 2026-05-04 01:33 | 31.66078 | -82.37247 | 34133 ft | 464 kts | 323° |
| 2026-05-04 01:33 | 31.71840 | -82.40658 | 34128 ft | 464 kts | 323° |
| 2026-05-04 01:34 | 31.77602 | -82.44076 | 34128 ft | 464 kts | 323° |
| 2026-05-04 01:34 | 31.83363 | -82.47498 | 34132 ft | 464 kts | 323° |
| 2026-05-04 01:35 | 31.89087 | -82.50902 | 34128 ft | 464 kts | 323° |
| 2026-05-04 01:35 | 31.94836 | -82.54336 | 34125 ft | 462 kts | 321° |
| 2026-05-04 01:35 | 31.97530 | -82.56314 | 34119 ft | 449 kts | 312° |
| 2026-05-04 01:36 | 31.99897 | -82.58659 | 34139 ft | 443 kts | 309° |
| 2026-05-04 01:36 | 32.04521 | -82.63468 | 34130 ft | 443 kts | 309° |
| 2026-05-04 01:37 | 32.09156 | -82.68261 | 34127 ft | 444 kts | 309° |
| 2026-05-04 01:37 | 32.13829 | -82.73044 | 34084 ft | 446 kts | 310° |
| 2026-05-04 01:37 | 32.16189 | -82.75459 | 33657 ft | 451 kts | 310° |
| 2026-05-04 01:38 | 32.18569 | -82.77890 | 33137 ft | 452 kts | 310° |
| 2026-05-04 01:38 | 32.20940 | -82.80308 | 32633 ft | 449 kts | 310° |
| 2026-05-04 01:38 | 32.23299 | -82.82716 | 32118 ft | 448 kts | 311° |
| 2026-05-04 01:38 | 32.25650 | -82.85119 | 31580 ft | 441 kts | 311° |
| 2026-05-04 01:39 | 32.27928 | -82.87444 | 31076 ft | 426 kts | 311° |
| 2026-05-04 01:39 | 32.30108 | -82.89672 | 30577 ft | 411 kts | 311° |
| 2026-05-04 01:39 | 32.32235 | -82.91855 | 30109 ft | 398 kts | 311° |
| 2026-05-04 01:39 | 32.34300 | -82.93978 | 29654 ft | 386 kts | 311° |
| 2026-05-04 01:40 | 32.36297 | -82.96031 | 29200 ft | 375 kts | 311° |
| 2026-05-04 01:40 | 32.38236 | -82.98025 | 28758 ft | 364 kts | 310° |
| 2026-05-04 01:40 | 32.40136 | -82.99984 | 28341 ft | 361 kts | 311° |
| 2026-05-04 01:40 | 32.42021 | -83.01927 | 27916 ft | 358 kts | 311° |
| 2026-05-04 01:41 | 32.43897 | -83.03863 | 27472 ft | 356 kts | 311° |
| 2026-05-04 01:41 | 32.45738 | -83.05763 | 27055 ft | 354 kts | 311° |
| 2026-05-04 01:41 | 32.47592 | -83.07678 | 26631 ft | 351 kts | 311° |
| 2026-05-04 01:41 | 32.49429 | -83.09576 | 26212 ft | 349 kts | 311° |
| 2026-05-04 01:42 | 32.51251 | -83.11459 | 25801 ft | 346 kts | 311° |
| 2026-05-04 01:42 | 32.53063 | -83.13333 | 25393 ft | 344 kts | 311° |
| 2026-05-04 01:42 | 32.54861 | -83.15194 | 24991 ft | 342 kts | 312° |
| 2026-05-04 01:42 | 32.56651 | -83.17047 | 24583 ft | 340 kts | 312° |
| 2026-05-04 01:43 | 32.58426 | -83.18884 | 24189 ft | 338 kts | 312° |
| 2026-05-04 01:43 | 32.60193 | -83.20716 | 23758 ft | 337 kts | 312° |
| 2026-05-04 01:43 | 32.61928 | -83.22514 | 23355 ft | 335 kts | 312° |
| 2026-05-04 01:43 | 32.63679 | -83.24331 | 22958 ft | 333 kts | 313° |
| 2026-05-04 01:44 | 32.65415 | -83.26133 | 22566 ft | 331 kts | 313° |
| 2026-05-04 01:44 | 32.67143 | -83.27927 | 22172 ft | 329 kts | 313° |
| 2026-05-04 01:44 | 32.68860 | -83.29711 | 21788 ft | 327 kts | 313° |
| 2026-05-04 01:44 | 32.70566 | -83.31485 | 21403 ft | 325 kts | 313° |
| 2026-05-04 01:45 | 32.72260 | -83.33248 | 21015 ft | 323 kts | 313° |
| 2026-05-04 01:45 | 32.73949 | -83.35006 | 20637 ft | 321 kts | 314° |
| 2026-05-04 01:45 | 32.77289 | -83.38486 | 19890 ft | 317 kts | 314° |
| 2026-05-04 01:46 | 32.78938 | -83.40208 | 19517 ft | 315 kts | 314° |
| 2026-05-04 01:46 | 32.80579 | -83.41920 | 19145 ft | 313 kts | 314° |
| 2026-05-04 01:46 | 32.82208 | -83.43620 | 18784 ft | 311 kts | 314° |
| 2026-05-04 01:46 | 32.83826 | -83.45310 | 18419 ft | 309 kts | 314° |
| 2026-05-04 01:47 | 32.85436 | -83.46992 | 18052 ft | 307 kts | 314° |
| 2026-05-04 01:47 | 32.87037 | -83.48666 | 17695 ft | 305 kts | 314° |
| 2026-05-04 01:47 | 32.88607 | -83.50309 | 17315 ft | 304 kts | 315° |
| 2026-05-04 01:47 | 32.90198 | -83.51976 | 16895 ft | 304 kts | 315° |
| 2026-05-04 01:48 | 32.91784 | -83.53635 | 16524 ft | 303 kts | 315° |
| 2026-05-04 01:48 | 32.93359 | -83.55285 | 16156 ft | 301 kts | 315° |
| 2026-05-04 01:48 | 32.94929 | -83.56929 | 15796 ft | 299 kts | 315° |
| 2026-05-04 01:48 | 32.96491 | -83.58564 | 15439 ft | 298 kts | 315° |
| 2026-05-04 01:49 | 32.98047 | -83.60192 | 15075 ft | 297 kts | 315° |
| 2026-05-04 01:49 | 32.99593 | -83.61811 | 14721 ft | 295 kts | 316° |
| 2026-05-04 01:49 | 33.01133 | -83.63423 | 14365 ft | 294 kts | 316° |
| 2026-05-04 01:49 | 33.02664 | -83.65030 | 14013 ft | 292 kts | 316° |
| 2026-05-04 01:50 | 33.04186 | -83.66630 | 13666 ft | 290 kts | 316° |
| 2026-05-04 01:50 | 33.05683 | -83.68202 | 13322 ft | 289 kts | 316° |
| 2026-05-04 01:50 | 33.07186 | -83.69780 | 12976 ft | 287 kts | 316° |
| 2026-05-04 01:50 | 33.08680 | -83.71350 | 12634 ft | 285 kts | 316° |
| 2026-05-04 01:51 | 33.10165 | -83.72909 | 12296 ft | 284 kts | 316° |
| 2026-05-04 01:51 | 33.11642 | -83.74462 | 11957 ft | 282 kts | 317° |
| 2026-05-04 01:51 | 33.13112 | -83.76009 | 11619 ft | 281 kts | 317° |
| 2026-05-04 01:51 | 33.14573 | -83.77548 | 11285 ft | 279 kts | 317° |
| 2026-05-04 01:52 | 33.16023 | -83.79079 | 10933 ft | 278 kts | 317° |
| 2026-05-04 01:52 | 33.17472 | -83.80610 | 10609 ft | 277 kts | 317° |
| 2026-05-04 01:52 | 33.18909 | -83.82131 | 10273 ft | 276 kts | 317° |
| 2026-05-04 01:52 | 33.20285 | -83.83692 | 10102 ft | 268 kts | 314° |
| 2026-05-04 01:53 | 33.21585 | -83.85250 | 9879 ft | 263 kts | 313° |
| 2026-05-04 01:53 | 33.22871 | -83.86801 | 9585 ft | 262 kts | 313° |
| 2026-05-04 01:53 | 33.24159 | -83.88348 | 9254 ft | 263 kts | 314° |
| 2026-05-04 01:53 | 33.25448 | -83.89891 | 8955 ft | 262 kts | 314° |
| 2026-05-04 01:54 | 33.26733 | -83.91432 | 8626 ft | 262 kts | 314° |
| 2026-05-04 01:54 | 33.28006 | -83.92949 | 8315 ft | 261 kts | 314° |
| 2026-05-04 01:54 | 33.29291 | -83.94478 | 8036 ft | 259 kts | 314° |
| 2026-05-04 01:54 | 33.30540 | -83.95968 | 7980 ft | 253 kts | 313° |
| 2026-05-04 01:55 | 33.31790 | -83.97466 | 7920 ft | 258 kts | 313° |
| 2026-05-04 01:55 | 33.33069 | -83.99000 | 7862 ft | 263 kts | 314° |
| 2026-05-04 01:55 | 33.34369 | -84.00555 | 7818 ft | 265 kts | 313° |
| 2026-05-04 01:55 | 33.35706 | -84.02071 | 7739 ft | 266 kts | 323° |
| 2026-05-04 01:56 | 33.37417 | -84.02880 | 7705 ft | 267 kts | 349° |
| 2026-05-04 01:56 | 33.39266 | -84.03032 | 7655 ft | 266 kts | 357° |
| 2026-05-04 01:56 | 33.41122 | -84.03038 | 7602 ft | 267 kts | 358° |
| 2026-05-04 01:56 | 33.42978 | -84.03048 | 7543 ft | 266 kts | 357° |
| 2026-05-04 01:57 | 33.44833 | -84.03071 | 7484 ft | 267 kts | 357° |
| 2026-05-04 01:57 | 33.46693 | -84.03089 | 7434 ft | 267 kts | 359° |
| 2026-05-04 01:57 | 33.48547 | -84.02841 | 7397 ft | 268 kts | 8° |
| 2026-05-04 01:57 | 33.50379 | -84.02423 | 7348 ft | 268 kts | 8° |
| 2026-05-04 01:58 | 33.52199 | -84.02073 | 7267 ft | 269 kts | 7° |
| 2026-05-04 01:58 | 33.54035 | -84.01740 | 7204 ft | 263 kts | 6° |
| 2026-05-04 01:58 | 33.55815 | -84.01425 | 7166 ft | 253 kts | 6° |
| 2026-05-04 01:58 | 33.57543 | -84.01116 | 7112 ft | 248 kts | 6° |
| 2026-05-04 01:59 | 33.59240 | -84.00820 | 7065 ft | 245 kts | 6° |
| 2026-05-04 01:59 | 33.60928 | -84.00808 | 7020 ft | 242 kts | 344° |
| 2026-05-04 01:59 | 33.62331 | -84.01806 | 6913 ft | 237 kts | 308° |
| 2026-05-04 01:59 | 33.63058 | -84.03585 | 6575 ft | 243 kts | 282° |
| 2026-05-04 02:00 | 33.63211 | -84.05613 | 6238 ft | 244 kts | 271° |
| 2026-05-04 02:00 | 33.63237 | -84.07662 | 5892 ft | 247 kts | 270° |
| 2026-05-04 02:00 | 33.63243 | -84.09025 | 5702 ft | 246 kts | 270° |
| 2026-05-04 02:00 | 33.63252 | -84.11049 | 5635 ft | 238 kts | 271° |
| 2026-05-04 02:01 | 33.63253 | -84.13625 | 5512 ft | 235 kts | 268° |
| 2026-05-04 02:01 | 33.63230 | -84.15610 | 5229 ft | 235 kts | 269° |
| 2026-05-04 02:01 | 33.63220 | -84.17549 | 4919 ft | 228 kts | 269° |
| 2026-05-04 02:01 | 33.63216 | -84.18799 | 4732 ft | 223 kts | 269° |
| 2026-05-04 02:02 | 33.63209 | -84.20621 | 4418 ft | 215 kts | 269° |
| 2026-05-04 02:02 | 33.63209 | -84.22376 | 4134 ft | 206 kts | 269° |
| 2026-05-04 02:02 | 33.63206 | -84.24048 | 3886 ft | 196 kts | 269° |
| 2026-05-04 02:02 | 33.63202 | -84.25644 | 3632 ft | 187 kts | 269° |
| 2026-05-04 02:03 | 33.63183 | -84.27194 | 3403 ft | 184 kts | 266° |
| 2026-05-04 02:03 | 33.63168 | -84.28699 | 3170 ft | 177 kts | 270° |
| 2026-05-04 02:03 | 33.63190 | -84.30178 | 2970 ft | 175 kts | 269° |
| 2026-05-04 02:03 | 33.63221 | -84.31645 | 2712 ft | 173 kts | 269° |
| 2026-05-04 02:04 | 33.63198 | -84.33048 | 2439 ft | 156 kts | 269° |
| 2026-05-04 02:04 | 33.63188 | -84.34282 | 2257 ft | 147 kts | 270° |
| 2026-05-04 02:04 | 33.63180 | -84.35509 | 2070 ft | 146 kts | 271° |
| 2026-05-04 02:04 | 33.63184 | -84.36755 | 1848 ft | 151 kts | 271° |
| 2026-05-04 02:05 | 33.63180 | -84.38006 | 1634 ft | 148 kts | 271° |
| 2026-05-04 02:05 | 33.63181 | -84.39229 | 1451 ft | 145 kts | 271° |
| 2026-05-04 02:05 | 33.63182 | -84.40431 | 1278 ft | 144 kts | 271° |
| 2026-05-04 02:05 | 33.63182 | -84.41637 | 1079 ft | 144 kts | 271° |
| 2026-05-04 02:06 | 33.63184 | -84.42805 | 1006 ft | 129 kts | 270° |
| 2026-05-04 02:06 | 33.63183 | -84.43646 | 1006 ft | 56 kts | 270° |
| 2026-05-04 02:06 | 33.63185 | -84.43945 | 1003 ft | 28 kts | 274° |
| 2026-05-04 02:06 | 33.63218 | -84.44132 | 1004 ft | 19 kts | 292° |
| 2026-05-04 02:07 | 33.63273 | -84.44243 | 1005 ft | 10 kts | 315° |
| 2026-05-04 02:07 | 33.63329 | -84.44257 | 1005 ft | 8 kts | 20° |
| 2026-05-04 02:07 | 33.63363 | -84.44227 | 1005 ft | 2 kts | 40° |
| 2026-05-04 02:07 | 33.63367 | -84.44224 | 1005 ft | 0 kts | 40° |
| 2026-05-04 02:09 | 33.63369 | -84.44221 | 1005 ft | 3 kts | 40° |
| 2026-05-04 02:09 | 33.63418 | -84.44194 | 1005 ft | 11 kts | 9° |
| 2026-05-04 02:09 | 33.63495 | -84.44193 | 1006 ft | 11 kts | 0° |
| 2026-05-04 02:09 | 33.63545 | -84.44186 | 1006 ft | 6 kts | 19° |
| 2026-05-04 02:10 | 33.63575 | -84.44153 | 1006 ft | 6 kts | 61° |
| 2026-05-04 02:10 | 33.63581 | -84.44105 | 1006 ft | 6 kts | 90° |
| 2026-05-04 02:10 | 33.63591 | -84.44059 | 1006 ft | 6 kts | 43° |
| 2026-05-04 02:10 | 33.63631 | -84.44057 | 1006 ft | 6 kts | 356° |
| 2026-05-04 02:11 | 33.63677 | -84.44053 | 1006 ft | 7 kts | 5° |
| 2026-05-04 02:11 | 33.63723 | -84.44050 | 1006 ft | 5 kts | 4° |
| 2026-05-04 02:11 | 33.63747 | -84.44022 | 1005 ft | 5 kts | 69° |
| 2026-05-04 02:11 | 33.63753 | -84.43986 | 1005 ft | 3 kts | 79° |
| 2026-05-04 02:12 | 33.63754 | -84.43977 | 1005 ft | 0 kts | 79° |